createdAt,value
2019-05-19T00:03:19.333Z,15.70
2019-05-19T00:07:22.352Z,15.80
2019-05-19T00:11:25.348Z,15.80
2019-05-19T00:15:28.367Z,15.80
2019-05-19T00:19:31.643Z,15.80
2019-05-19T00:23:34.639Z,15.70
2019-05-19T00:27:38.895Z,15.50
2019-05-19T00:31:41.903Z,15.50
2019-05-19T00:35:45.158Z,15.60
2019-05-19T00:39:48.667Z,15.70
2019-05-19T00:43:51.688Z,15.70
2019-05-19T00:47:54.784Z,15.70
2019-05-19T00:51:57.787Z,15.80
2019-05-19T00:56:01.284Z,15.80
2019-05-19T01:00:06.379Z,15.80
2019-05-19T01:04:09.403Z,15.80
2019-05-19T01:08:12.392Z,15.80
2019-05-19T01:12:15.406Z,15.90
2019-05-19T01:16:18.489Z,15.80
2019-05-19T01:20:21.894Z,15.80
2019-05-19T01:24:24.917Z,15.70
2019-05-19T01:28:28.768Z,15.70
2019-05-19T01:32:31.776Z,15.60
2019-05-19T01:36:34.791Z,15.60
2019-05-19T01:40:38.091Z,15.60
2019-05-19T01:44:41.124Z,15.50
2019-05-19T01:48:44.134Z,15.60
2019-05-19T01:52:47.135Z,15.40
2019-05-19T01:56:50.136Z,15.50
2019-05-19T02:00:53.135Z,15.60
2019-05-19T02:04:56.138Z,15.60
2019-05-19T02:08:59.159Z,15.60
2019-05-19T02:13:05.098Z,15.40
2019-05-19T02:17:07.368Z,15.40
2019-05-19T02:21:10.360Z,15.50
2019-05-19T02:25:13.966Z,15.50
2019-05-19T02:29:17.549Z,15.50
2019-05-19T02:33:20.551Z,15.50
2019-05-19T02:37:23.548Z,15.40
2019-05-19T02:41:28.256Z,15.50
2019-05-19T02:45:32.561Z,15.40
2019-05-19T02:49:36.268Z,15.30
2019-05-19T02:53:41.040Z,15.40
2019-05-19T02:57:45.233Z,15.40
2019-05-19T03:01:50.133Z,15.50
2019-05-19T03:05:53.160Z,15.40
2019-05-19T03:09:56.168Z,15.50
2019-05-19T03:13:59.183Z,15.50
2019-05-19T03:18:02.222Z,15.50
2019-05-19T03:22:05.222Z,15.40
2019-05-19T03:26:08.244Z,15.40
2019-05-19T03:30:30.591Z,15.30
2019-05-19T03:34:33.596Z,15.40
2019-05-19T03:38:36.606Z,15.30
2019-05-19T03:42:39.607Z,15.30
2019-05-19T03:46:42.621Z,15.30
2019-05-19T03:50:45.629Z,15.40
2019-05-19T03:54:48.646Z,15.30
2019-05-19T03:58:51.656Z,15.20
2019-05-19T04:02:54.657Z,15.20
2019-05-19T04:06:57.669Z,15.10
2019-05-19T04:11:00.693Z,15.30
2019-05-19T04:15:03.002Z,15.00
2019-05-19T04:19:06.006Z,14.90
2019-05-19T04:23:09.042Z,15.10
2019-05-19T04:27:12.165Z,15.20
2019-05-19T04:31:16.158Z,15.20
2019-05-19T04:35:19.257Z,15.40
2019-05-19T04:39:22.286Z,15.40
2019-05-19T04:43:25.278Z,15.50
2019-05-19T04:47:28.282Z,15.50
2019-05-19T04:51:29.344Z,15.60
2019-05-19T04:55:32.385Z,15.50
2019-05-19T04:59:35.399Z,15.50
2019-05-19T05:03:38.397Z,15.60
2019-05-19T05:07:41.404Z,15.70
2019-05-19T05:11:44.436Z,15.80
2019-05-19T05:15:47.455Z,15.90
2019-05-19T05:19:50.464Z,15.90
2019-05-19T05:23:53.476Z,16.00
2019-05-19T05:27:56.472Z,16.10
2019-05-19T05:32:00.305Z,16.20
2019-05-19T05:36:03.610Z,16.40
2019-05-19T05:40:07.382Z,16.50
2019-05-19T05:44:10.469Z,16.70
2019-05-19T05:48:13.481Z,16.90
2019-05-19T05:52:16.476Z,17.20
2019-05-19T05:56:19.493Z,17.40
2019-05-19T06:00:22.897Z,17.40
2019-05-19T06:04:25.907Z,17.60
2019-05-19T06:08:28.920Z,17.60
2019-05-19T06:12:31.928Z,17.70
2019-05-19T06:16:34.949Z,17.80
2019-05-19T06:20:37.951Z,17.80
2019-05-19T06:24:41.050Z,17.80
2019-05-19T06:28:44.559Z,18.00
2019-05-19T06:32:55.660Z,18.10
2019-05-19T06:36:58.649Z,18.30
2019-05-19T06:41:01.669Z,18.30
2019-05-19T06:45:06.477Z,18.60
2019-05-19T06:49:09.476Z,18.70
2019-05-19T06:53:14.462Z,18.70
2019-05-19T06:57:17.432Z,19.00
2019-05-19T07:01:20.436Z,19.20
2019-05-19T07:05:23.443Z,19.50
2019-05-19T07:09:26.574Z,19.90
2019-05-19T07:13:29.684Z,20.20
2019-05-19T07:17:32.715Z,20.60
2019-05-19T07:21:35.755Z,21.00
2019-05-19T07:25:38.796Z,21.20
2019-05-19T07:29:41.794Z,21.60
2019-05-19T07:33:45.775Z,21.90
2019-05-19T07:37:49.093Z,22.30
2019-05-19T07:41:52.103Z,22.20
2019-05-19T07:45:55.110Z,22.30
2019-05-19T07:49:58.117Z,22.30
2019-05-19T07:54:01.110Z,22.70
2019-05-19T07:58:04.112Z,23.00
2019-05-19T08:02:07.120Z,23.70
2019-05-19T08:06:10.154Z,24.90
2019-05-19T08:10:13.325Z,25.80
2019-05-19T08:14:16.329Z,25.90
2019-05-19T08:18:19.325Z,26.50
2019-05-19T08:22:22.424Z,27.10
2019-05-19T08:26:25.428Z,28.20
2019-05-19T08:30:28.421Z,28.90
2019-05-19T08:34:32.854Z,29.50
2019-05-19T08:38:35.941Z,29.10
2019-05-19T08:42:38.949Z,28.60
2019-05-19T08:46:41.968Z,29.40
2019-05-19T08:50:45.020Z,30.10
2019-05-19T08:54:48.021Z,30.50
2019-05-19T08:58:51.053Z,30.80
2019-05-19T09:02:54.069Z,31.10
2019-05-19T09:06:57.070Z,31.00
2019-05-19T09:11:00.124Z,31.60
2019-05-19T09:15:04.965Z,31.60
2019-05-19T09:19:07.969Z,31.80
2019-05-19T09:23:10.984Z,31.60
2019-05-19T09:27:13.982Z,31.20
2019-05-19T09:31:17.000Z,31.10
2019-05-19T09:35:20.780Z,31.00
2019-05-19T09:39:23.792Z,30.80
2019-05-19T09:43:26.794Z,31.70
2019-05-19T09:47:29.791Z,32.30
2019-05-19T09:51:32.809Z,32.10
2019-05-19T09:55:35.847Z,32.10
2019-05-19T09:59:38.840Z,32.00
2019-05-19T10:03:41.849Z,30.90
2019-05-19T10:07:44.861Z,31.90
2019-05-19T10:11:59.649Z,32.80
2019-05-19T10:16:02.659Z,33.20
2019-05-19T10:20:07.828Z,32.80
2019-05-19T10:24:10.861Z,33.20
2019-05-19T10:28:13.931Z,33.70
2019-05-19T10:32:17.088Z,32.80
2019-05-19T10:36:21.395Z,33.20
2019-05-19T10:40:24.426Z,33.60
2019-05-19T10:44:27.454Z,34.10
2019-05-19T10:48:30.466Z,34.20
2019-05-19T10:52:33.513Z,33.80
2019-05-19T10:56:36.599Z,32.90
2019-05-19T11:00:39.612Z,31.70
2019-05-19T11:04:42.628Z,30.80
2019-05-19T11:08:45.674Z,30.50
2019-05-19T11:12:49.314Z,30.70
2019-05-19T11:16:52.357Z,31.00
2019-05-19T11:20:55.420Z,31.10
2019-05-19T11:24:58.468Z,30.90
2019-05-19T11:29:01.492Z,31.30
2019-05-19T11:33:04.490Z,30.80
2019-05-19T11:37:09.497Z,31.40
2019-05-19T11:41:12.521Z,31.50
2019-05-19T11:45:15.632Z,32.10
2019-05-19T11:49:18.632Z,31.70
2019-05-19T11:53:21.642Z,31.90
2019-05-19T11:57:24.656Z,31.90
2019-05-19T12:01:27.661Z,32.60
2019-05-19T12:05:30.758Z,31.90
2019-05-19T12:09:33.867Z,31.30
2019-05-19T12:13:36.955Z,32.30
2019-05-19T12:17:40.061Z,32.00
2019-05-19T12:21:43.147Z,32.00
2019-05-19T12:25:46.155Z,31.50
2019-05-19T12:29:49.159Z,30.40
2019-05-19T12:33:52.518Z,28.90
2019-05-19T12:37:55.744Z,28.50
2019-05-19T12:41:58.773Z,28.00
2019-05-19T12:46:01.809Z,27.00
2019-05-19T12:50:06.054Z,26.40
2019-05-19T12:54:09.128Z,26.70
2019-05-19T12:58:12.145Z,27.50
2019-05-19T13:02:15.154Z,28.50
2019-05-19T13:06:18.161Z,28.70
2019-05-19T13:10:22.217Z,28.30
2019-05-19T13:14:25.217Z,27.70
2019-05-19T13:18:28.321Z,28.10
2019-05-19T13:22:31.333Z,29.10
2019-05-19T13:26:34.325Z,29.60
2019-05-19T13:30:37.340Z,29.20
2019-05-19T13:34:40.345Z,28.50
2019-05-19T13:38:44.084Z,29.10
2019-05-19T13:42:47.082Z,29.50
2019-05-19T13:46:50.097Z,29.70
2019-05-19T13:50:53.110Z,30.10
2019-05-19T13:54:56.109Z,30.10
2019-05-19T13:58:59.099Z,30.40
2019-05-19T14:03:02.096Z,30.10
2019-05-19T14:07:05.103Z,30.40
2019-05-19T14:11:08.097Z,29.70
2019-05-19T14:15:11.401Z,29.10
2019-05-19T14:19:14.426Z,28.80
2019-05-19T14:23:17.420Z,28.60
2019-05-19T14:27:29.464Z,28.70
2019-05-19T14:31:25.369Z,28.60
2019-05-19T14:35:28.395Z,28.30
2019-05-19T14:39:31.971Z,28.20
2019-05-19T14:43:35.237Z,28.70
2019-05-19T14:47:38.248Z,28.50
2019-05-19T14:51:41.260Z,27.50
2019-05-19T14:55:44.257Z,27.80
2019-05-19T14:59:47.256Z,27.80
2019-05-19T15:03:50.266Z,27.60
2019-05-19T15:07:53.289Z,27.40
2019-05-19T15:11:56.304Z,26.80
2019-05-19T15:15:59.326Z,26.50
2019-05-19T15:20:04.334Z,26.30
2019-05-19T15:24:07.419Z,26.20
2019-05-19T15:28:10.433Z,25.90
2019-05-19T15:32:13.428Z,25.90
2019-05-19T15:36:16.488Z,25.90
2019-05-19T15:40:20.715Z,25.70
2019-05-19T15:44:23.733Z,25.40
2019-05-19T15:48:26.740Z,25.00
2019-05-19T15:52:29.754Z,24.80
2019-05-19T15:56:32.801Z,24.30
2019-05-19T16:00:35.800Z,24.20
2019-05-19T16:04:38.796Z,23.90
2019-05-19T16:08:41.803Z,23.70
2019-05-19T16:12:44.806Z,23.70
2019-05-19T16:16:47.972Z,23.60
2019-05-19T16:20:50.976Z,23.50
2019-05-19T16:24:53.985Z,23.50
2019-05-19T16:28:57.013Z,23.50
2019-05-19T16:33:00.018Z,23.50
2019-05-19T16:37:03.029Z,23.40
2019-05-19T16:41:07.705Z,23.30
2019-05-19T16:45:10.874Z,23.30
2019-05-19T16:49:13.902Z,23.20
2019-05-19T16:53:17.477Z,22.90
2019-05-19T16:57:20.538Z,22.80
2019-05-19T17:01:23.573Z,22.80
2019-05-19T17:05:26.677Z,22.60
2019-05-19T17:09:29.852Z,22.50
2019-05-19T17:13:32.935Z,22.30
2019-05-19T17:17:36.025Z,21.80
2019-05-19T17:21:39.128Z,21.70
2019-05-19T17:25:42.228Z,21.50
2019-05-19T17:29:45.225Z,21.40
2019-05-19T17:33:48.222Z,21.40
2019-05-19T17:37:51.324Z,21.20
2019-05-19T17:41:55.368Z,21.30
2019-05-19T17:45:58.446Z,21.50
2019-05-19T17:50:01.687Z,21.40
2019-05-19T17:54:04.872Z,21.30
2019-05-19T17:58:07.961Z,21.30
2019-05-19T18:02:10.967Z,21.20
2019-05-19T18:06:13.965Z,21.20
2019-05-19T18:10:17.049Z,21.20
2019-05-19T18:14:20.044Z,21.10
2019-05-19T18:18:23.040Z,21.00
2019-05-19T18:22:26.164Z,21.10
2019-05-19T18:26:29.252Z,21.00
2019-05-19T18:30:32.252Z,20.90
2019-05-19T18:34:35.261Z,21.00
2019-05-19T18:38:38.260Z,20.90
2019-05-19T18:42:42.074Z,20.80
2019-05-19T18:46:45.151Z,20.70
2019-05-19T18:50:48.191Z,20.80
2019-05-19T18:54:51.297Z,20.80
2019-05-19T18:58:54.316Z,20.70
2019-05-19T19:02:57.439Z,20.40
2019-05-19T19:07:00.457Z,20.20
2019-05-19T19:11:03.641Z,20.00
2019-05-19T19:15:06.749Z,20.10
2019-05-19T19:19:09.793Z,19.80
2019-05-19T19:23:12.906Z,19.90
2019-05-19T19:27:15.922Z,20.00
2019-05-19T19:31:18.953Z,20.00
2019-05-19T19:35:21.981Z,20.00
2019-05-19T19:39:24.978Z,20.00
2019-05-19T19:43:29.399Z,20.00
2019-05-19T19:47:32.472Z,20.00
2019-05-19T19:51:35.576Z,19.80
2019-05-19T19:55:38.572Z,19.70
2019-05-19T19:59:41.566Z,19.60
2019-05-19T20:03:44.669Z,19.60
2019-05-19T20:07:47.773Z,19.50
2019-05-19T20:11:50.781Z,19.40
2019-05-19T20:15:53.863Z,19.30
2019-05-19T20:19:56.968Z,19.20
2019-05-19T20:23:59.988Z,19.10
2019-05-19T20:28:02.964Z,19.00
2019-05-19T20:32:05.963Z,18.90
2019-05-19T20:36:08.963Z,19.00
2019-05-19T20:40:12.477Z,19.00
2019-05-19T20:44:15.606Z,18.90
2019-05-19T20:48:18.618Z,18.90
2019-05-19T20:52:21.632Z,18.80
2019-05-19T20:56:24.638Z,18.60
2019-05-19T21:00:27.949Z,18.40
2019-05-19T21:04:30.941Z,18.30
2019-05-19T21:08:33.944Z,18.30
2019-05-19T21:12:36.960Z,17.80
2019-05-19T21:16:39.963Z,17.60
2019-05-19T21:20:42.970Z,17.60
2019-05-19T21:24:45.987Z,17.30
2019-05-19T21:28:48.985Z,17.30
2019-05-19T21:32:51.972Z,17.30
2019-05-19T21:36:55.064Z,17.30
2019-05-19T21:40:58.071Z,17.30
2019-05-19T21:45:03.091Z,17.20
2019-05-19T21:49:06.103Z,17.20
2019-05-19T21:53:09.102Z,17.10
2019-05-19T21:57:12.088Z,17.10
2019-05-19T22:01:23.201Z,16.90
2019-05-19T22:05:20.169Z,16.90
2019-05-19T22:09:23.188Z,16.80
2019-05-19T22:13:26.606Z,16.80
2019-05-19T22:17:29.587Z,16.60
2019-05-19T22:21:32.587Z,16.60
2019-05-19T22:25:35.607Z,16.60
2019-05-19T22:29:38.690Z,16.60
2019-05-19T22:33:41.688Z,16.60
2019-05-19T22:37:44.888Z,16.50
2019-05-19T22:41:47.888Z,16.40
2019-05-19T22:45:51.522Z,16.30
2019-05-19T22:49:54.554Z,16.30
2019-05-19T22:53:57.547Z,16.20
2019-05-19T22:58:00.547Z,16.10
2019-05-19T23:02:03.543Z,16.10
2019-05-19T23:06:06.648Z,16.10
2019-05-19T23:10:10.176Z,16.00
2019-05-19T23:14:13.188Z,16.00
2019-05-19T23:18:16.225Z,15.90
2019-05-19T23:22:19.239Z,15.60
2019-05-19T23:26:22.284Z,15.40
2019-05-19T23:30:25.285Z,15.50
2019-05-19T23:34:28.309Z,15.50
2019-05-19T23:38:31.317Z,15.60
2019-05-19T23:42:35.372Z,15.60
2019-05-19T23:46:39.415Z,15.40
2019-05-19T23:50:42.414Z,15.40
2019-05-19T23:54:45.439Z,15.40
2019-05-19T23:58:48.473Z,15.40
